Latest Weather Observations for Warburton

IDW60801

Issued at 9:05 pm WST Monday 1 September 2014 (issued every 30 minutes, with the page automatically refreshed every 10 minutes)

About weather observations | Map of weather stations | Latest weather observations for WA | Other Formats
Station Details ID: 013011 Name: WARBURTON AIRFIELD Lat: -26.13 Lon: 126.58 Height: 459.0 m
Data from the previous 72 hours. | See also: Recent months at Warburton
Date/Time
WST
Temp
°C
App
Temp
°C
Dew
Point
Rel
Hum
%
Delta-T
°C
Wind Press
QNH
hPa
Press
MSL
hPa
Rain
since 9 am
mm
Dir
 
Spd
km/h
Gust
km/h
Spd
kts
Gust
kts
01/09:00pm 18.2 14.4 5.8 44 6.2 ESE 15 20 8 11 1023.6 1022.1 0.0
01/08:30pm 18.8 14.7 6.0 43 6.4 SE 17 20 9 11 1023.3 - 0.0
01/08:00pm 19.3 15.1 5.7 41 6.9 SE 17 24 9 13 1023.1 - 0.0
01/07:30pm 19.8 15.2 5.8 40 7.1 SE 19 26 10 14 1022.8 - 0.0
01/07:00pm 20.3 15.5 5.5 38 7.5 SE 20 26 11 14 1022.5 - 0.0
01/06:30pm 20.9 15.7 5.3 36 7.9 SE 22 30 12 16 1022.0 - 0.0
01/06:00pm 21.7 16.1 5.6 35 8.2 SE 24 32 13 17 1021.5 1019.9 0.0
01/05:30pm 22.8 18.2 5.7 33 8.8 SE 19 28 10 15 1021.0 - 0.0
01/05:00pm 23.5 18.8 5.9 32 9.1 SE 20 28 11 15 1020.9 - 0.0
01/04:30pm 24.3 20.6 6.1 31 9.5 SE 15 24 8 13 1020.4 - 0.0
01/04:00pm 25.1 21.5 6.8 31 9.8 SSE 15 26 8 14 1020.2 - 0.0
01/03:30pm 25.0 20.9 6.2 30 9.9 SE 17 26 9 14 1019.9 - 0.0
01/03:00pm 25.1 20.9 7.3 32 9.5 S 19 26 10 14 1019.9 1018.3 0.0
01/02:30pm 25.5 21.5 8.1 33 9.5 SE 19 30 10 16 1019.8 - 0.0
01/02:00pm 25.3 21.3 9.2 36 9.0 SE 20 26 11 14 1020.0 - 0.0
01/01:30pm 25.1 20.5 9.8 38 8.6 SE 24 33 13 18 1020.0 - 0.0
01/01:00pm 25.6 21.9 10.2 38 8.7 S 20 30 11 16 1020.2 - 0.0
01/12:30pm 24.7 21.2 10.2 40 8.2 SE 19 26 10 14 1020.4 - 0.0
01/12:00pm 23.9 20.3 10.6 43 7.5 ESE 20 30 11 16 1021.0 1019.5 0.0
01/11:30am 23.4 19.9 10.8 45 7.1 SE 20 32 11 17 1021.5 - 0.0
01/11:00am 22.7 18.8 10.8 47 6.7 SE 22 35 12 19 1021.5 - 0.0
01/10:30am 22.9 19.1 11.0 47 6.7 SSE 22 33 12 18 1021.9 - 0.0
01/10:00am 20.8 16.2 11.2 54 5.4 SE 26 33 14 18 1021.9 - 0.0
01/09:30am 20.1 15.5 11.1 56 5.0 SE 26 37 14 20 1022.0 - 0.0
01/09:00am 19.2 14.6 11.0 59 4.5 SE 26 41 14 22 1021.8 1020.2 0.0
01/08:30am 18.6 13.2 10.9 61 4.3 SE 30 43 16 23 1021.8 - 0.0
01/08:00am 17.3 11.5 10.7 65 3.6 SE 32 43 17 23 1021.2 - 0.0
01/07:30am 16.7 11.5 10.1 65 3.6 SE 28 37 15 20 1020.8 - 0.0
01/07:00am 16.3 11.3 9.7 65 3.5 SE 26 37 14 20 1020.4 - 0.0
01/06:30am 15.5 11.4 8.7 64 3.5 SE 20 32 11 17 1019.7 - 0.0
01/06:00am 15.0 11.4 8.3 64 3.4 SE 17 24 9 13 1019.2 1017.6 0.0
01/05:30am 11.3 7.6 2.6 55 3.9 SE 11 15 6 8 1018.7 - 0.0
01/05:00am 9.3 5.4 -4.3 38 5.0 S 7 9 4 5 1018.6 - 0.0
01/04:30am 9.5 5.6 -4.8 36 5.3 S 7 9 4 5 1018.3 - 0.0
01/04:00am 9.4 6.7 -5.6 34 5.4 CALM 0 0 0 0 1018.0 - 0.0
01/03:30am 10.1 7.1 -5.4 33 5.7 S 2 7 1 4 1017.7 - 0.0
01/03:00am 11.1 6.8 -4.9 32 6.0 SSW 9 13 5 7 1017.6 1016.0 0.0
01/02:30am 11.3 7.3 -6.1 29 6.3 S 7 7 4 4 1017.2 - 0.0
01/02:00am 11.2 6.7 -6.6 28 6.4 SSE 9 9 5 5 1017.1 - 0.0
01/01:30am 12.0 8.5 -5.9 28 6.6 S 4 7 2 4 1016.9 - 0.0
01/01:00am 11.0 7.0 -5.9 30 6.2 NNE 7 9 4 5 1016.5 - 0.0
01/12:30am 11.2 7.4 -5.7 30 6.2 N 6 7 3 4 1016.6 - 0.0
01/12:00am 11.9 8.1 -6.0 28 6.6 N 6 6 3 3 1016.9 1015.3 0.0
 
Date/Time
WST
Temp
°C
App
Temp
°C
Dew
Point
Rel
Hum
%
Delta-T
°C
Wind Press
QNH
hPa
Press
MSL
hPa
Rain
since 9 am
mm
Dir
 
Spd
km/h
Gust
km/h
Spd
kts
Gust
kts
31/11:30pm 12.5 8.7 -6.0 27 6.8 N 6 7 3 4 1016.7 - 0.0
31/11:00pm 13.0 9.5 -6.0 26 7.1 N 4 7 2 4 1017.0 - 0.0
31/10:30pm 13.3 9.2 -6.3 25 7.3 NNE 7 7 4 4 1016.9 - 0.0
31/10:00pm 13.7 9.8 -6.5 24 7.5 N 6 7 3 4 1016.9 - 0.0
31/09:30pm 14.8 10.8 -6.1 23 7.9 NNE 7 9 4 5 1016.9 - 0.0
31/09:00pm 14.6 11.9 -6.3 23 7.9 CALM 0 0 0 0 1016.7 1015.9 0.0
31/08:30pm 15.6 12.9 -6.0 22 8.3 CALM 0 0 0 0 1016.4 - 0.0
31/08:00pm 16.4 13.6 -6.6 20 8.8 CALM 0 0 0 0 1016.4 - 0.0
31/07:30pm 18.3 14.3 -7.1 17 9.8 NW 6 7 3 4 1016.2 - 0.0
31/07:00pm 21.9 17.7 -7.7 13 11.7 NW 7 9 4 5 1015.8 - 0.0
31/06:30pm 23.2 19.0 -7.7 12 12.4 NW 7 9 4 5 1015.5 - 0.0
31/06:00pm 25.0 20.3 -8.7 10 13.5 W 9 11 5 6 1015.2 1014.3 0.0
31/05:30pm 26.5 21.8 -8.9 9 14.3 WNW 9 11 5 6 1014.9 - 0.0
31/05:00pm 29.0 22.8 -8.5 8 15.7 W 17 22 9 12 1014.8 - 0.0
31/04:30pm 29.9 23.6 -9.6 7 16.3 WNW 17 26 9 14 1014.7 - 0.0
31/04:00pm 30.2 23.6 -9.4 7 16.5 W 19 32 10 17 1014.4 - 0.0
31/03:30pm 30.8 23.7 -8.9 7 16.7 W 22 33 12 18 1014.7 - 0.0
31/03:00pm 30.8 24.0 -8.9 7 16.7 WNW 20 32 11 17 1014.6 1013.7 0.0
31/02:30pm 30.7 23.2 -9.0 7 16.7 WNW 24 39 13 21 1014.9 - 0.0
31/02:00pm 30.9 24.7 -8.9 7 16.8 WSW 17 28 9 15 1015.0 - 0.0
31/01:30pm 30.5 23.0 -9.1 7 16.6 W 24 35 13 19 1015.3 - 0.0
31/01:00pm 30.5 23.9 -9.1 7 16.6 WNW 19 30 10 16 1015.8 - 0.0
31/12:30pm 30.4 24.2 -9.2 7 16.5 NW 17 30 9 16 1016.1 - 0.0
31/12:00pm 29.7 22.2 -8.0 8 16.0 NNW 24 30 13 16 1016.5 1015.7 0.0
31/11:30am 29.4 22.9 -8.2 8 15.8 W 19 30 10 16 1017.2 - 0.0
31/11:00am 29.3 23.3 -6.8 9 15.6 W 17 24 9 13 1017.6 - 0.0
31/10:30am 28.2 22.5 -7.6 9 15.1 W 15 22 8 12 1018.0 - 0.0
31/10:00am 26.9 22.0 -7.3 10 14.3 W 11 20 6 11 1018.3 - 0.0
31/09:30am 25.9 20.9 -8.0 10 13.9 W 11 19 6 10 1018.6 - 0.0
31/09:00am 24.8 19.7 -8.8 10 13.4 NNW 11 15 6 8 1018.6 1017.8 0.0
31/08:30am 22.7 17.4 -7.1 13 12.0 NNW 13 17 7 9 1018.5 - 0.0
31/08:00am 20.2 15.3 -7.2 15 10.8 N 11 15 6 8 1018.6 - 0.0
31/07:30am 17.2 12.3 -7.3 18 9.3 NW 11 13 6 7 1018.8 - 0.0
31/07:00am 15.3 10.8 -6.9 21 8.3 NNW 9 11 5 6 1018.2 - 0.0
31/06:30am 12.7 8.8 -6.8 25 7.1 S 6 13 3 7 1018.1 - 0.0
31/06:00am 11.9 7.3 -7.5 25 6.9 NNW 9 11 5 6 1017.4 1016.6 0.0
31/05:30am 12.9 7.6 -7.2 24 7.3 N 13 13 7 7 1016.9 - 0.0
31/05:00am 12.6 8.0 -7.4 24 7.2 N 9 13 5 7 1016.5 - 0.0
31/04:30am 13.3 8.4 -7.4 23 7.5 N 11 15 6 8 1016.6 - 0.0
31/04:00am 13.3 8.0 -7.4 23 7.5 N 13 15 7 8 1016.4 - 0.0
31/03:30am 10.5 6.4 -6.8 29 6.1 N 7 9 4 5 1016.5 - 0.0
31/03:00am 10.6 7.4 -6.7 29 6.1 W 2 9 1 5 1016.7 1015.9 0.0
31/02:30am 11.3 8.5 -7.0 27 6.5 CALM 0 0 0 0 1017.1 - 0.0
31/02:00am 13.7 8.4 -7.0 23 7.6 SW 13 19 7 10 1017.2 - 0.0
31/01:30am 12.3 8.2 -6.6 26 6.9 N 7 7 4 4 1017.0 - 0.0
31/01:00am 12.8 8.6 -7.2 24 7.2 N 7 9 4 5 1017.1 - 0.0
31/12:30am 12.3 7.8 -6.6 26 6.9 N 9 11 5 6 1017.3 - 0.0
31/12:00am 12.6 8.5 -6.4 26 7.0 N 7 9 4 5 1017.5 1016.7 0.0
 
Date/Time
WST
Temp
°C
App
Temp
°C
Dew
Point
Rel
Hum
%
Delta-T
°C
Wind Press
QNH
hPa
Press
MSL
hPa
Rain
since 9 am
mm
Dir
 
Spd
km/h
Gust
km/h
Spd
kts
Gust
kts
30/11:30pm 12.0 7.9 -6.9 26 6.8 N 7 9 4 5 1017.7 - 0.0
30/11:00pm 12.2 8.1 -6.7 26 6.9 N 7 9 4 5 1017.9 - 0.0
30/10:30pm 13.7 9.8 -6.5 24 7.5 NNW 6 9 3 5 1018.1 - 0.0
30/10:00pm 13.6 9.2 -6.0 25 7.3 N 9 9 5 5 1018.1 - 0.0
30/09:30pm 14.8 10.7 -6.7 22 8.0 N 7 9 4 5 1018.3 - 0.0
30/09:00pm 14.4 9.9 -7.0 22 7.9 N 9 9 5 5 1018.4 1017.6 0.0
30/08:30pm 15.3 11.2 -6.3 22 8.2 N 7 9 4 5 1018.4 - 0.0
30/08:00pm 16.4 12.3 -6.6 20 8.8 N 7 7 4 4 1018.4 - 0.0
30/07:30pm 17.7 13.6 -6.9 18 9.5 NNE 7 9 4 5 1018.2 - 0.0
30/07:00pm 19.5 15.3 -7.8 15 10.5 N 7 11 4 6 1018.1 - 0.0
30/06:30pm 21.7 17.1 -7.9 13 11.6 N 9 11 5 6 1017.7 - 0.0
30/06:00pm 23.3 19.0 -8.8 11 12.6 N 7 11 4 6 1017.5 1016.7 0.0
30/05:30pm 25.6 21.0 -8.2 10 13.7 NNW 9 11 5 6 1017.3 - 0.0
30/05:00pm 28.5 24.2 -8.9 8 15.4 WNW 7 13 4 7 1017.1 - 0.0
30/04:30pm 29.3 24.3 -8.3 8 15.8 WNW 11 17 6 9 1017.0 - 0.0
30/04:00pm 29.7 25.5 -9.7 7 16.2 NNW 6 19 3 10 1016.9 - 0.0
30/03:30pm 29.6 24.6 -8.1 8 15.9 NNW 11 20 6 11 1016.7 - 0.0
30/03:00pm 30.2 24.9 -7.7 8 16.2 W 13 28 7 15 1016.7 1015.9 0.0
30/02:30pm 30.1 25.0 -9.4 7 16.4 WNW 11 17 6 9 1017.0 - 0.0
30/02:00pm 29.5 24.5 -8.2 8 15.9 NNW 11 20 6 11 1017.2 - 0.0
30/01:30pm 29.9 24.9 -7.9 8 16.1 N 11 20 6 11 1017.5 - 0.0
30/01:00pm 29.1 24.5 -8.5 8 15.7 W 9 20 5 11 1017.8 - 0.0
30/12:30pm 29.4 24.8 -8.2 8 15.8 NW 9 24 5 13 1018.4 - 0.0
30/12:00pm 29.6 24.2 -8.1 8 15.9 NNW 13 24 7 13 1018.9 1018.1 0.0
30/11:30am 28.4 21.8 -9.0 8 15.4 WNW 19 26 10 14 1019.4 - 0.0
30/11:00am 28.2 21.2 -7.6 9 15.1 N 22 32 12 17 1019.9 - 0.0
30/10:30am 27.8 20.7 -7.9 9 14.9 N 22 30 12 16 1020.3 - 0.0
30/10:00am 26.7 19.3 -7.4 10 14.2 N 24 33 13 18 1020.8 - 0.0
30/09:30am 26.3 19.0 -6.5 11 13.9 NNW 24 32 13 17 1021.0 - 0.0
30/09:00am 25.3 18.0 -6.1 12 13.2 N 24 32 13 17 1021.2 1020.5 0.0
30/08:30am 24.1 17.2 -6.0 13 12.6 N 22 28 12 15 1021.3 - 0.0
30/08:00am 22.7 16.8 -6.1 14 11.9 N 17 20 9 11 1021.2 - 0.0
30/07:30am 19.7 14.9 -6.0 17 10.3 N 11 17 6 9 1021.0 - 0.0
30/07:00am 16.5 12.2 -5.3 22 8.6 N 9 13 5 7 1020.6 - 0.0
30/06:30am 14.5 9.7 -5.8 24 7.7 N 11 13 6 7 1020.4 - 0.0
30/06:00am 10.3 6.3 -6.1 31 5.9 N 7 9 4 5 1020.2 1019.4 0.0
30/05:30am 11.0 6.3 -5.5 31 6.1 NNE 11 13 6 7 1019.8 - 0.0
30/05:00am 9.9 5.1 -5.6 33 5.6 N 11 13 6 7 1019.6 - 0.0
30/04:30am 7.8 3.9 -6.7 35 5.0 N 6 7 3 4 1019.6 - 0.0
30/04:00am 7.7 3.6 -6.8 35 5.0 NNE 7 9 4 5 1019.6 - 0.0
30/03:30am 8.5 4.0 -6.4 34 5.2 N 9 11 5 6 1020.0 - 0.0
30/03:00am 8.4 4.3 -6.9 33 5.3 N 7 9 4 5 1019.9 1019.1 0.0
30/02:30am 9.3 5.2 -6.9 31 5.6 N 7 7 4 4 1019.8 - 0.0
30/02:00am 9.6 5.5 -6.3 32 5.6 N 7 9 4 5 1020.0 - 0.0
30/01:30am 10.0 5.6 -6.3 31 5.8 N 9 11 5 6 1020.1 - 0.0
30/01:00am 10.0 6.1 -6.8 30 5.9 NNE 6 9 3 5 1020.2 - 0.0
30/12:30am 10.6 6.5 -6.7 29 6.2 N 7 7 4 4 1020.3 - 0.0
30/12:00am 11.7 7.6 -6.6 27 6.6 N 7 9 4 5 1020.4 1019.6 0.0
 
Date/Time
WST
Temp
°C
App
Temp
°C
Dew
Point
Rel
Hum
%
Delta-T
°C
Wind Press
QNH
hPa
Press
MSL
hPa
Rain
since 9 am
mm
Dir
 
Spd
km/h
Gust
km/h
Spd
kts
Gust
kts
29/11:30pm 12.8 8.3 -6.7 25 7.1 NNE 9 11 5 6 1020.4 - 0.0
29/11:00pm 12.9 8.1 -6.1 26 7.0 N 11 11 6 6 1020.4 - 0.0
29/10:30pm 12.7 8.6 -6.3 26 7.0 N 7 9 4 5 1020.4 - 0.0
29/10:00pm 13.7 9.6 -6.5 24 7.5 NNE 7 9 4 5 1020.4 - 0.0
29/09:30pm 14.3 9.8 -6.5 23 7.8 NNE 9 9 5 5 1020.7 - 0.0

Other Formats:

Comma delimited format used in spreadsheet applications
http://www.bom.gov.au/fwo/IDW60801/IDW60801.94457.axf

JavaScript Object Notation format (JSON) in row-major order
http://www.bom.gov.au/fwo/IDW60801/IDW60801.94457.json